sensor_id;sensor_type;location;lat;lon;timestamp;P1;durP1;ratioP1;P2;durP2;ratioP2
19867;SDS011;10096;51.112;6.776;2023-02-14T00:00:00;9.50;;;7.70;;
19867;SDS011;10096;51.112;6.776;2023-02-14T00:02:27;10.93;;;7.77;;
19867;SDS011;10096;51.112;6.776;2023-02-14T00:04:54;10.10;;;8.33;;
19867;SDS011;10096;51.112;6.776;2023-02-14T00:07:21;10.17;;;7.57;;
19867;SDS011;10096;51.112;6.776;2023-02-14T00:09:48;10.60;;;7.37;;
19867;SDS011;10096;51.112;6.776;2023-02-14T00:12:16;9.73;;;8.53;;
19867;SDS011;10096;51.112;6.776;2023-02-14T00:14:43;9.70;;;7.47;;
19867;SDS011;10096;51.112;6.776;2023-02-14T00:17:28;12.77;;;7.63;;
19867;SDS011;10096;51.112;6.776;2023-02-14T00:19:55;11.17;;;7.50;;
19867;SDS011;10096;51.112;6.776;2023-02-14T00:22:22;9.50;;;7.90;;
19867;SDS011;10096;51.112;6.776;2023-02-14T00:24:48;9.87;;;8.17;;
19867;SDS011;10096;51.112;6.776;2023-02-14T00:27:17;8.73;;;7.70;;
19867;SDS011;10096;51.112;6.776;2023-02-14T00:29:44;8.87;;;7.90;;
19867;SDS011;10096;51.112;6.776;2023-02-14T00:32:11;10.20;;;7.60;;
19867;SDS011;10096;51.112;6.776;2023-02-14T00:34:39;10.37;;;7.53;;
19867;SDS011;10096;51.112;6.776;2023-02-14T00:37:06;8.63;;;7.73;;
19867;SDS011;10096;51.112;6.776;2023-02-14T00:39:33;9.10;;;7.50;;
19867;SDS011;10096;51.112;6.776;2023-02-14T00:42:00;8.97;;;7.40;;
19867;SDS011;10096;51.112;6.776;2023-02-14T00:44:28;9.70;;;7.93;;
19867;SDS011;10096;51.112;6.776;2023-02-14T00:46:55;9.33;;;8.03;;
19867;SDS011;10096;51.112;6.776;2023-02-14T00:49:22;8.37;;;7.37;;
19867;SDS011;10096;51.112;6.776;2023-02-14T00:51:49;10.40;;;7.83;;
19867;SDS011;10096;51.112;6.776;2023-02-14T00:54:16;10.20;;;8.23;;
19867;SDS011;10096;51.112;6.776;2023-02-14T00:56:43;9.53;;;7.70;;
19867;SDS011;10096;51.112;6.776;2023-02-14T00:59:10;11.07;;;8.60;;
19867;SDS011;10096;51.112;6.776;2023-02-14T01:01:38;8.40;;;7.33;;
19867;SDS011;10096;51.112;6.776;2023-02-14T01:04:05;8.73;;;7.00;;
19867;SDS011;10096;51.112;6.776;2023-02-14T01:06:32;9.13;;;7.53;;
19867;SDS011;10096;51.112;6.776;2023-02-14T01:09:00;9.33;;;7.57;;
19867;SDS011;10096;51.112;6.776;2023-02-14T01:11:27;9.93;;;8.70;;
19867;SDS011;10096;51.112;6.776;2023-02-14T01:13:54;9.93;;;8.33;;
19867;SDS011;10096;51.112;6.776;2023-02-14T01:16:22;9.13;;;8.13;;
19867;SDS011;10096;51.112;6.776;2023-02-14T01:18:52;10.10;;;8.40;;
19867;SDS011;10096;51.112;6.776;2023-02-14T01:21:20;11.93;;;8.80;;
19867;SDS011;10096;51.112;6.776;2023-02-14T01:23:49;11.13;;;8.60;;
19867;SDS011;10096;51.112;6.776;2023-02-14T01:26:18;10.67;;;8.57;;
19867;SDS011;10096;51.112;6.776;2023-02-14T01:28:46;10.73;;;8.63;;
19867;SDS011;10096;51.112;6.776;2023-02-14T01:31:14;8.87;;;7.80;;
19867;SDS011;10096;51.112;6.776;2023-02-14T01:33:43;9.47;;;8.37;;
19867;SDS011;10096;51.112;6.776;2023-02-14T01:36:17;10.23;;;7.63;;
19867;SDS011;10096;51.112;6.776;2023-02-14T01:38:47;9.30;;;7.70;;
19867;SDS011;10096;51.112;6.776;2023-02-14T01:41:17;9.13;;;8.20;;
19867;SDS011;10096;51.112;6.776;2023-02-14T01:43:51;11.33;;;9.17;;
19867;SDS011;10096;51.112;6.776;2023-02-14T01:46:21;11.17;;;9.13;;
19867;SDS011;10096;51.112;6.776;2023-02-14T01:48:50;15.20;;;8.97;;
19867;SDS011;10096;51.112;6.776;2023-02-14T01:51:22;11.47;;;8.53;;
19867;SDS011;10096;51.112;6.776;2023-02-14T01:53:55;10.43;;;8.50;;
19867;SDS011;10096;51.112;6.776;2023-02-14T01:56:29;8.87;;;7.97;;
19867;SDS011;10096;51.112;6.776;2023-02-14T01:59:03;9.70;;;8.57;;
19867;SDS011;10096;51.112;6.776;2023-02-14T02:01:34;12.73;;;9.40;;
19867;SDS011;10096;51.112;6.776;2023-02-14T02:04:01;9.37;;;8.37;;
19867;SDS011;10096;51.112;6.776;2023-02-14T02:06:34;12.87;;;10.27;;
19867;SDS011;10096;51.112;6.776;2023-02-14T02:09:06;11.00;;;8.33;;
19867;SDS011;10096;51.112;6.776;2023-02-14T02:11:37;10.10;;;8.80;;
19867;SDS011;10096;51.112;6.776;2023-02-14T02:14:12;10.50;;;9.00;;
19867;SDS011;10096;51.112;6.776;2023-02-14T02:16:52;11.27;;;8.90;;
19867;SDS011;10096;51.112;6.776;2023-02-14T02:19:41;10.67;;;8.77;;
19867;SDS011;10096;51.112;6.776;2023-02-14T02:22:41;10.93;;;9.20;;
19867;SDS011;10096;51.112;6.776;2023-02-14T02:25:51;10.70;;;8.73;;
19867;SDS011;10096;51.112;6.776;2023-02-14T02:28:40;10.30;;;9.17;;
19867;SDS011;10096;51.112;6.776;2023-02-14T02:31:33;11.27;;;9.30;;
19867;SDS011;10096;51.112;6.776;2023-02-14T02:37:29;11.53;;;9.33;;
19867;SDS011;10096;51.112;6.776;2023-02-14T02:40:11;10.53;;;8.73;;
19867;SDS011;10096;51.112;6.776;2023-02-14T02:42:47;10.93;;;8.90;;
19867;SDS011;10096;51.112;6.776;2023-02-14T02:45:22;13.20;;;8.90;;
19867;SDS011;10096;51.112;6.776;2023-02-14T02:47:57;9.97;;;8.97;;
19867;SDS011;10096;51.112;6.776;2023-02-14T02:50:31;10.87;;;9.43;;
19867;SDS011;10096;51.112;6.776;2023-02-14T02:53:22;12.47;;;9.30;;
19867;SDS011;10096;51.112;6.776;2023-02-14T02:55:54;10.00;;;8.73;;
19867;SDS011;10096;51.112;6.776;2023-02-14T02:58:44;12.30;;;8.90;;
19867;SDS011;10096;51.112;6.776;2023-02-14T03:01:15;9.80;;;8.60;;
19867;SDS011;10096;51.112;6.776;2023-02-14T03:03:46;12.13;;;8.93;;
19867;SDS011;10096;51.112;6.776;2023-02-14T03:06:34;10.77;;;8.93;;
19867;SDS011;10096;51.112;6.776;2023-02-14T03:09:10;13.27;;;9.70;;
19867;SDS011;10096;51.112;6.776;2023-02-14T03:11:39;11.70;;;9.80;;
19867;SDS011;10096;51.112;6.776;2023-02-14T03:14:15;10.70;;;9.40;;
19867;SDS011;10096;51.112;6.776;2023-02-14T03:16:53;12.33;;;10.37;;
19867;SDS011;10096;51.112;6.776;2023-02-14T03:19:31;14.83;;;10.50;;
19867;SDS011;10096;51.112;6.776;2023-02-14T03:22:39;11.80;;;9.13;;
19867;SDS011;10096;51.112;6.776;2023-02-14T03:25:16;12.00;;;10.17;;
19867;SDS011;10096;51.112;6.776;2023-02-14T03:27:53;13.47;;;10.10;;
19867;SDS011;10096;51.112;6.776;2023-02-14T03:30:25;11.93;;;9.77;;
19867;SDS011;10096;51.112;6.776;2023-02-14T03:33:04;12.53;;;10.47;;
19867;SDS011;10096;51.112;6.776;2023-02-14T03:35:39;12.87;;;10.07;;
19867;SDS011;10096;51.112;6.776;2023-02-14T03:38:13;13.27;;;10.30;;
19867;SDS011;10096;51.112;6.776;2023-02-14T03:40:49;12.50;;;10.73;;
19867;SDS011;10096;51.112;6.776;2023-02-14T03:43:21;13.90;;;10.50;;
19867;SDS011;10096;51.112;6.776;2023-02-14T03:45:52;13.30;;;10.53;;
19867;SDS011;10096;51.112;6.776;2023-02-14T03:48:23;13.50;;;11.37;;
19867;SDS011;10096;51.112;6.776;2023-02-14T03:50:53;16.30;;;11.63;;
19867;SDS011;10096;51.112;6.776;2023-02-14T03:53:23;12.77;;;10.67;;
19867;SDS011;10096;51.112;6.776;2023-02-14T03:55:56;14.33;;;11.10;;
19867;SDS011;10096;51.112;6.776;2023-02-14T03:58:27;13.73;;;10.70;;
19867;SDS011;10096;51.112;6.776;2023-02-14T04:00:58;15.17;;;11.10;;
19867;SDS011;10096;51.112;6.776;2023-02-14T04:03:29;14.77;;;10.90;;
19867;SDS011;10096;51.112;6.776;2023-02-14T04:05:58;14.33;;;12.17;;
19867;SDS011;10096;51.112;6.776;2023-02-14T04:08:27;13.87;;;11.23;;
19867;SDS011;10096;51.112;6.776;2023-02-14T04:10:57;16.30;;;12.13;;
19867;SDS011;10096;51.112;6.776;2023-02-14T04:13:26;15.37;;;12.43;;
19867;SDS011;10096;51.112;6.776;2023-02-14T04:15:53;17.23;;;12.50;;
19867;SDS011;10096;51.112;6.776;2023-02-14T04:18:20;16.43;;;12.33;;
19867;SDS011;10096;51.112;6.776;2023-02-14T04:21:04;17.20;;;13.37;;
19867;SDS011;10096;51.112;6.776;2023-02-14T04:23:31;16.57;;;12.83;;
19867;SDS011;10096;51.112;6.776;2023-02-14T04:26:00;15.70;;;12.20;;
19867;SDS011;10096;51.112;6.776;2023-02-14T04:28:28;17.23;;;12.70;;
19867;SDS011;10096;51.112;6.776;2023-02-14T04:30:55;15.67;;;13.23;;
19867;SDS011;10096;51.112;6.776;2023-02-14T04:33:21;14.70;;;12.47;;
19867;SDS011;10096;51.112;6.776;2023-02-14T04:35:48;16.43;;;12.33;;
19867;SDS011;10096;51.112;6.776;2023-02-14T04:38:15;17.17;;;12.63;;
19867;SDS011;10096;51.112;6.776;2023-02-14T04:40:42;16.07;;;13.43;;
19867;SDS011;10096;51.112;6.776;2023-02-14T04:43:11;18.73;;;13.90;;
19867;SDS011;10096;51.112;6.776;2023-02-14T04:45:38;17.83;;;13.37;;
19867;SDS011;10096;51.112;6.776;2023-02-14T04:48:05;17.93;;;13.60;;
19867;SDS011;10096;51.112;6.776;2023-02-14T04:50:32;16.07;;;12.97;;
19867;SDS011;10096;51.112;6.776;2023-02-14T04:52:59;17.33;;;13.70;;
19867;SDS011;10096;51.112;6.776;2023-02-14T04:55:26;18.57;;;13.80;;
19867;SDS011;10096;51.112;6.776;2023-02-14T04:57:53;20.00;;;14.03;;
19867;SDS011;10096;51.112;6.776;2023-02-14T05:00:21;17.33;;;13.37;;
19867;SDS011;10096;51.112;6.776;2023-02-14T05:03:00;18.17;;;14.00;;
19867;SDS011;10096;51.112;6.776;2023-02-14T05:05:27;17.27;;;13.63;;
19867;SDS011;10096;51.112;6.776;2023-02-14T05:07:54;20.03;;;14.63;;
19867;SDS011;10096;51.112;6.776;2023-02-14T05:10:20;15.73;;;12.63;;
19867;SDS011;10096;51.112;6.776;2023-02-14T05:12:47;17.97;;;13.60;;
19867;SDS011;10096;51.112;6.776;2023-02-14T05:15:14;17.03;;;12.97;;
19867;SDS011;10096;51.112;6.776;2023-02-14T05:17:43;17.87;;;14.10;;
19867;SDS011;10096;51.112;6.776;2023-02-14T05:20:10;19.93;;;14.07;;
19867;SDS011;10096;51.112;6.776;2023-02-14T05:22:37;18.90;;;14.20;;
19867;SDS011;10096;51.112;6.776;2023-02-14T05:25:04;20.43;;;15.30;;
19867;SDS011;10096;51.112;6.776;2023-02-14T05:27:32;22.03;;;15.63;;
19867;SDS011;10096;51.112;6.776;2023-02-14T05:29:59;20.67;;;15.00;;
19867;SDS011;10096;51.112;6.776;2023-02-14T05:32:26;20.73;;;15.80;;
19867;SDS011;10096;51.112;6.776;2023-02-14T05:34:54;20.93;;;15.63;;
19867;SDS011;10096;51.112;6.776;2023-02-14T05:37:21;20.17;;;15.70;;
19867;SDS011;10096;51.112;6.776;2023-02-14T05:39:48;20.53;;;16.00;;
19867;SDS011;10096;51.112;6.776;2023-02-14T05:42:15;22.20;;;15.33;;
19867;SDS011;10096;51.112;6.776;2023-02-14T05:44:42;21.23;;;15.80;;
19867;SDS011;10096;51.112;6.776;2023-02-14T05:47:09;21.80;;;15.53;;
19867;SDS011;10096;51.112;6.776;2023-02-14T05:49:36;23.20;;;16.03;;
19867;SDS011;10096;51.112;6.776;2023-02-14T05:52:06;20.90;;;16.50;;
19867;SDS011;10096;51.112;6.776;2023-02-14T05:54:33;20.83;;;15.83;;
19867;SDS011;10096;51.112;6.776;2023-02-14T05:57:00;19.97;;;15.00;;
19867;SDS011;10096;51.112;6.776;2023-02-14T05:59:27;22.43;;;15.10;;
19867;SDS011;10096;51.112;6.776;2023-02-14T06:01:54;20.40;;;15.83;;
19867;SDS011;10096;51.112;6.776;2023-02-14T06:04:21;22.60;;;15.53;;
19867;SDS011;10096;51.112;6.776;2023-02-14T06:06:48;22.33;;;16.07;;
19867;SDS011;10096;51.112;6.776;2023-02-14T06:09:16;20.97;;;15.17;;
19867;SDS011;10096;51.112;6.776;2023-02-14T06:11:43;21.47;;;15.87;;
19867;SDS011;10096;51.112;6.776;2023-02-14T06:14:10;20.33;;;14.90;;
19867;SDS011;10096;51.112;6.776;2023-02-14T06:16:37;19.40;;;15.53;;
19867;SDS011;10096;51.112;6.776;2023-02-14T06:19:04;22.87;;;16.30;;
19867;SDS011;10096;51.112;6.776;2023-02-14T06:21:33;23.87;;;15.73;;
19867;SDS011;10096;51.112;6.776;2023-02-14T06:24:00;20.73;;;15.90;;
19867;SDS011;10096;51.112;6.776;2023-02-14T06:26:30;20.30;;;15.67;;
19867;SDS011;10096;51.112;6.776;2023-02-14T06:29:00;24.97;;;17.07;;
19867;SDS011;10096;51.112;6.776;2023-02-14T06:31:28;22.97;;;16.73;;
19867;SDS011;10096;51.112;6.776;2023-02-14T06:33:55;22.73;;;16.60;;
19867;SDS011;10096;51.112;6.776;2023-02-14T06:36:22;25.33;;;16.80;;
19867;SDS011;10096;51.112;6.776;2023-02-14T06:38:49;22.60;;;17.00;;
19867;SDS011;10096;51.112;6.776;2023-02-14T06:41:17;22.23;;;17.53;;
19867;SDS011;10096;51.112;6.776;2023-02-14T06:43:46;22.30;;;17.37;;
19867;SDS011;10096;51.112;6.776;2023-02-14T06:46:13;22.70;;;17.33;;
19867;SDS011;10096;51.112;6.776;2023-02-14T06:48:41;24.90;;;17.63;;
19867;SDS011;10096;51.112;6.776;2023-02-14T06:51:08;23.57;;;17.87;;
19867;SDS011;10096;51.112;6.776;2023-02-14T06:53:35;24.20;;;17.97;;
19867;SDS011;10096;51.112;6.776;2023-02-14T06:56:03;23.13;;;17.40;;
19867;SDS011;10096;51.112;6.776;2023-02-14T06:58:30;25.50;;;18.37;;
19867;SDS011;10096;51.112;6.776;2023-02-14T07:00:58;21.97;;;17.00;;
19867;SDS011;10096;51.112;6.776;2023-02-14T07:03:27;22.93;;;16.90;;
19867;SDS011;10096;51.112;6.776;2023-02-14T07:05:56;25.23;;;18.10;;
19867;SDS011;10096;51.112;6.776;2023-02-14T07:08:23;28.47;;;18.20;;
19867;SDS011;10096;51.112;6.776;2023-02-14T07:10:53;23.47;;;18.40;;
19867;SDS011;10096;51.112;6.776;2023-02-14T07:13:21;23.50;;;17.77;;
19867;SDS011;10096;51.112;6.776;2023-02-14T07:15:48;20.67;;;16.37;;
19867;SDS011;10096;51.112;6.776;2023-02-14T07:18:17;22.73;;;17.00;;
19867;SDS011;10096;51.112;6.776;2023-02-14T07:20:45;24.20;;;17.70;;
19867;SDS011;10096;51.112;6.776;2023-02-14T07:23:13;24.57;;;17.07;;
19867;SDS011;10096;51.112;6.776;2023-02-14T07:25:40;23.10;;;17.67;;
19867;SDS011;10096;51.112;6.776;2023-02-14T07:28:07;23.63;;;17.27;;
19867;SDS011;10096;51.112;6.776;2023-02-14T07:30:34;23.37;;;17.10;;
19867;SDS011;10096;51.112;6.776;2023-02-14T07:33:00;21.37;;;16.30;;
19867;SDS011;10096;51.112;6.776;2023-02-14T07:35:29;24.77;;;17.50;;
19867;SDS011;10096;51.112;6.776;2023-02-14T07:37:57;22.25;;;17.27;;
19867;SDS011;10096;51.112;6.776;2023-02-14T07:40:24;20.63;;;16.53;;
19867;SDS011;10096;51.112;6.776;2023-02-14T07:42:54;19.65;;;15.85;;
19867;SDS011;10096;51.112;6.776;2023-02-14T07:45:22;19.92;;;15.32;;
19867;SDS011;10096;51.112;6.776;2023-02-14T07:47:50;20.70;;;16.17;;
19867;SDS011;10096;51.112;6.776;2023-02-14T07:50:19;22.23;;;18.98;;
19867;SDS011;10096;51.112;6.776;2023-02-14T07:52:50;20.10;;;17.90;;
19867;SDS011;10096;51.112;6.776;2023-02-14T07:55:19;19.55;;;16.52;;
19867;SDS011;10096;51.112;6.776;2023-02-14T07:57:49;21.48;;;16.50;;
19867;SDS011;10096;51.112;6.776;2023-02-14T08:00:17;19.50;;;16.77;;
19867;SDS011;10096;51.112;6.776;2023-02-14T08:02:44;22.38;;;17.25;;
19867;SDS011;10096;51.112;6.776;2023-02-14T08:05:13;22.20;;;17.83;;
19867;SDS011;10096;51.112;6.776;2023-02-14T08:07:40;20.45;;;16.80;;
19867;SDS011;10096;51.112;6.776;2023-02-14T08:10:09;19.25;;;16.02;;
19867;SDS011;10096;51.112;6.776;2023-02-14T08:12:36;18.15;;;15.43;;
19867;SDS011;10096;51.112;6.776;2023-02-14T08:15:21;19.23;;;15.93;;
19867;SDS011;10096;51.112;6.776;2023-02-14T08:18:05;19.92;;;16.23;;
19867;SDS011;10096;51.112;6.776;2023-02-14T08:20:32;20.80;;;16.55;;
19867;SDS011;10096;51.112;6.776;2023-02-14T08:22:59;23.63;;;17.52;;
19867;SDS011;10096;51.112;6.776;2023-02-14T08:25:27;22.42;;;17.83;;
19867;SDS011;10096;51.112;6.776;2023-02-14T08:27:54;21.38;;;17.30;;
19867;SDS011;10096;51.112;6.776;2023-02-14T08:30:21;21.23;;;17.23;;
19867;SDS011;10096;51.112;6.776;2023-02-14T08:32:49;22.63;;;17.50;;
19867;SDS011;10096;51.112;6.776;2023-02-14T08:35:19;26.53;;;18.63;;
19867;SDS011;10096;51.112;6.776;2023-02-14T08:37:46;22.77;;;17.50;;
19867;SDS011;10096;51.112;6.776;2023-02-14T08:40:13;24.53;;;18.80;;
19867;SDS011;10096;51.112;6.776;2023-02-14T08:42:41;25.20;;;18.40;;
19867;SDS011;10096;51.112;6.776;2023-02-14T08:45:08;24.90;;;17.97;;
19867;SDS011;10096;51.112;6.776;2023-02-14T08:47:44;25.10;;;19.00;;
19867;SDS011;10096;51.112;6.776;2023-02-14T08:50:12;23.60;;;17.47;;
19867;SDS011;10096;51.112;6.776;2023-02-14T08:52:41;24.27;;;18.53;;
19867;SDS011;10096;51.112;6.776;2023-02-14T08:55:09;26.03;;;19.10;;
19867;SDS011;10096;51.112;6.776;2023-02-14T08:57:38;27.03;;;18.30;;
19867;SDS011;10096;51.112;6.776;2023-02-14T09:00:07;24.17;;;17.93;;
19867;SDS011;10096;51.112;6.776;2023-02-14T09:02:37;24.27;;;17.93;;
19867;SDS011;10096;51.112;6.776;2023-02-14T09:05:04;26.07;;;19.57;;
19867;SDS011;10096;51.112;6.776;2023-02-14T09:07:33;26.40;;;19.77;;
19867;SDS011;10096;51.112;6.776;2023-02-14T09:10:00;23.40;;;18.83;;
19867;SDS011;10096;51.112;6.776;2023-02-14T09:12:27;25.37;;;17.97;;
19867;SDS011;10096;51.112;6.776;2023-02-14T09:14:54;26.70;;;19.33;;
19867;SDS011;10096;51.112;6.776;2023-02-14T09:17:22;26.07;;;19.17;;
19867;SDS011;10096;51.112;6.776;2023-02-14T09:19:49;20.73;;;17.30;;
19867;SDS011;10096;51.112;6.776;2023-02-14T09:22:17;22.60;;;17.37;;
19867;SDS011;10096;51.112;6.776;2023-02-14T09:24:45;24.77;;;20.00;;
19867;SDS011;10096;51.112;6.776;2023-02-14T09:27:12;25.43;;;19.80;;
19867;SDS011;10096;51.112;6.776;2023-02-14T09:29:39;20.17;;;17.10;;
19867;SDS011;10096;51.112;6.776;2023-02-14T09:32:06;24.77;;;19.27;;
19867;SDS011;10096;51.112;6.776;2023-02-14T09:34:35;24.30;;;19.33;;
19867;SDS011;10096;51.112;6.776;2023-02-14T09:37:02;24.97;;;19.00;;
19867;SDS011;10096;51.112;6.776;2023-02-14T09:39:28;25.37;;;18.47;;
19867;SDS011;10096;51.112;6.776;2023-02-14T09:42:15;24.67;;;17.90;;
19867;SDS011;10096;51.112;6.776;2023-02-14T09:44:59;25.87;;;18.37;;
19867;SDS011;10096;51.112;6.776;2023-02-14T09:47:32;26.73;;;19.33;;
19867;SDS011;10096;51.112;6.776;2023-02-14T09:50:09;27.33;;;19.93;;
19867;SDS011;10096;51.112;6.776;2023-02-14T09:52:43;24.57;;;18.60;;
19867;SDS011;10096;51.112;6.776;2023-02-14T09:55:15;24.23;;;17.73;;
19867;SDS011;10096;51.112;6.776;2023-02-14T09:57:45;24.43;;;18.87;;
19867;SDS011;10096;51.112;6.776;2023-02-14T10:00:31;23.83;;;18.23;;
19867;SDS011;10096;51.112;6.776;2023-02-14T10:03:07;26.20;;;19.33;;
19867;SDS011;10096;51.112;6.776;2023-02-14T10:06:00;25.80;;;19.00;;
19867;SDS011;10096;51.112;6.776;2023-02-14T10:08:40;22.40;;;19.00;;
19867;SDS011;10096;51.112;6.776;2023-02-14T10:11:21;24.20;;;18.40;;
19867;SDS011;10096;51.112;6.776;2023-02-14T10:13:50;24.97;;;19.20;;
19867;SDS011;10096;51.112;6.776;2023-02-14T10:16:22;24.40;;;18.33;;
19867;SDS011;10096;51.112;6.776;2023-02-14T10:18:53;23.93;;;19.00;;
19867;SDS011;10096;51.112;6.776;2023-02-14T10:21:26;27.07;;;19.27;;
19867;SDS011;10096;51.112;6.776;2023-02-14T10:23:59;22.80;;;19.07;;
19867;SDS011;10096;51.112;6.776;2023-02-14T10:26:32;24.08;;;19.23;;
19867;SDS011;10096;51.112;6.776;2023-02-14T10:29:02;23.63;;;18.67;;
19867;SDS011;10096;51.112;6.776;2023-02-14T10:31:34;24.37;;;18.43;;
19867;SDS011;10096;51.112;6.776;2023-02-14T10:34:07;25.13;;;17.87;;
19867;SDS011;10096;51.112;6.776;2023-02-14T10:36:49;24.83;;;18.90;;
19867;SDS011;10096;51.112;6.776;2023-02-14T10:39:34;22.63;;;18.17;;
19867;SDS011;10096;51.112;6.776;2023-02-14T10:42:17;23.73;;;18.87;;
19867;SDS011;10096;51.112;6.776;2023-02-14T10:44:52;24.23;;;19.37;;
19867;SDS011;10096;51.112;6.776;2023-02-14T10:47:30;25.17;;;18.93;;
19867;SDS011;10096;51.112;6.776;2023-02-14T10:50:09;24.20;;;18.80;;
19867;SDS011;10096;51.112;6.776;2023-02-14T10:52:44;23.07;;;17.67;;
19867;SDS011;10096;51.112;6.776;2023-02-14T10:55:22;24.03;;;19.40;;
19867;SDS011;10096;51.112;6.776;2023-02-14T10:57:53;23.15;;;18.33;;
19867;SDS011;10096;51.112;6.776;2023-02-14T11:00:23;22.50;;;18.80;;
19867;SDS011;10096;51.112;6.776;2023-02-14T11:06:19;22.40;;;18.50;;
19867;SDS011;10096;51.112;6.776;2023-02-14T11:12:33;22.60;;;17.35;;
19867;SDS011;10096;51.112;6.776;2023-02-14T11:15:19;23.75;;;18.70;;
19867;SDS011;10096;51.112;6.776;2023-02-14T11:17:49;21.08;;;17.33;;
19867;SDS011;10096;51.112;6.776;2023-02-14T11:20:34;23.58;;;17.67;;
19867;SDS011;10096;51.112;6.776;2023-02-14T11:23:01;23.43;;;19.00;;
19867;SDS011;10096;51.112;6.776;2023-02-14T11:25:48;22.02;;;17.83;;
19867;SDS011;10096;51.112;6.776;2023-02-14T11:28:19;23.30;;;19.00;;
19867;SDS011;10096;51.112;6.776;2023-02-14T11:30:47;26.73;;;20.88;;
19867;SDS011;10096;51.112;6.776;2023-02-14T11:33:22;22.10;;;17.13;;
19867;SDS011;10096;51.112;6.776;2023-02-14T11:35:59;22.35;;;17.50;;
19867;SDS011;10096;51.112;6.776;2023-02-14T11:38:28;24.58;;;18.05;;
19867;SDS011;10096;51.112;6.776;2023-02-14T11:40:58;25.67;;;17.67;;
19867;SDS011;10096;51.112;6.776;2023-02-14T11:43:32;22.38;;;18.38;;
19867;SDS011;10096;51.112;6.776;2023-02-14T11:46:04;24.75;;;19.00;;
19867;SDS011;10096;51.112;6.776;2023-02-14T11:49:02;25.10;;;17.40;;
19867;SDS011;10096;51.112;6.776;2023-02-14T11:52:35;22.73;;;17.20;;
19867;SDS011;10096;51.112;6.776;2023-02-14T11:55:23;20.65;;;16.92;;
19867;SDS011;10096;51.112;6.776;2023-02-14T11:57:52;23.73;;;17.08;;
19867;SDS011;10096;51.112;6.776;2023-02-14T12:00:22;20.85;;;15.13;;
19867;SDS011;10096;51.112;6.776;2023-02-14T12:02:51;19.75;;;15.63;;
19867;SDS011;10096;51.112;6.776;2023-02-14T12:05:19;21.00;;;15.68;;
19867;SDS011;10096;51.112;6.776;2023-02-14T12:07:49;20.55;;;16.55;;
19867;SDS011;10096;51.112;6.776;2023-02-14T12:10:22;21.77;;;16.15;;
19867;SDS011;10096;51.112;6.776;2023-02-14T12:12:52;19.02;;;15.75;;
19867;SDS011;10096;51.112;6.776;2023-02-14T12:15:51;19.00;;;16.23;;
19867;SDS011;10096;51.112;6.776;2023-02-14T12:21:26;20.17;;;15.73;;
19867;SDS011;10096;51.112;6.776;2023-02-14T12:24:06;23.63;;;17.25;;
19867;SDS011;10096;51.112;6.776;2023-02-14T12:26:42;16.17;;;13.38;;
19867;SDS011;10096;51.112;6.776;2023-02-14T12:29:14;17.67;;;14.60;;
19867;SDS011;10096;51.112;6.776;2023-02-14T12:31:48;19.63;;;14.93;;
19867;SDS011;10096;51.112;6.776;2023-02-14T12:34:16;19.60;;;14.77;;
19867;SDS011;10096;51.112;6.776;2023-02-14T12:39:34;19.33;;;15.38;;
19867;SDS011;10096;51.112;6.776;2023-02-14T12:42:13;17.13;;;13.50;;
19867;SDS011;10096;51.112;6.776;2023-02-14T12:44:55;17.88;;;15.40;;
19867;SDS011;10096;51.112;6.776;2023-02-14T12:47:33;18.77;;;13.68;;
19867;SDS011;10096;51.112;6.776;2023-02-14T12:50:21;18.02;;;15.70;;
19867;SDS011;10096;51.112;6.776;2023-02-14T12:53:14;18.60;;;14.80;;
19867;SDS011;10096;51.112;6.776;2023-02-14T12:56:09;17.67;;;14.35;;
19867;SDS011;10096;51.112;6.776;2023-02-14T12:58:45;18.63;;;14.57;;
19867;SDS011;10096;51.112;6.776;2023-02-14T13:01:30;16.40;;;13.65;;
19867;SDS011;10096;51.112;6.776;2023-02-14T13:04:15;18.88;;;15.20;;
19867;SDS011;10096;51.112;6.776;2023-02-14T13:06:57;16.55;;;13.85;;
19867;SDS011;10096;51.112;6.776;2023-02-14T13:09:33;16.13;;;14.20;;
19867;SDS011;10096;51.112;6.776;2023-02-14T13:12:10;17.38;;;14.02;;
19867;SDS011;10096;51.112;6.776;2023-02-14T13:14:51;18.10;;;14.82;;
19867;SDS011;10096;51.112;6.776;2023-02-14T13:17:31;18.48;;;14.55;;
19867;SDS011;10096;51.112;6.776;2023-02-14T13:23:13;16.85;;;14.30;;
19867;SDS011;10096;51.112;6.776;2023-02-14T13:25:44;17.20;;;13.38;;
19867;SDS011;10096;51.112;6.776;2023-02-14T13:28:15;18.15;;;14.43;;
19867;SDS011;10096;51.112;6.776;2023-02-14T13:30:44;17.25;;;14.55;;
19867;SDS011;10096;51.112;6.776;2023-02-14T13:33:20;18.45;;;14.75;;
19867;SDS011;10096;51.112;6.776;2023-02-14T13:35:55;20.83;;;15.85;;
19867;SDS011;10096;51.112;6.776;2023-02-14T13:38:24;17.83;;;14.35;;
19867;SDS011;10096;51.112;6.776;2023-02-14T13:40:52;16.88;;;14.13;;
19867;SDS011;10096;51.112;6.776;2023-02-14T13:46:17;16.27;;;14.18;;
19867;SDS011;10096;51.112;6.776;2023-02-14T13:48:54;17.80;;;14.60;;
19867;SDS011;10096;51.112;6.776;2023-02-14T14:02:49;16.60;;;12.93;;
19867;SDS011;10096;51.112;6.776;2023-02-14T14:08:17;17.40;;;13.55;;
19867;SDS011;10096;51.112;6.776;2023-02-14T14:14:36;17.27;;;13.35;;
19867;SDS011;10096;51.112;6.776;2023-02-14T14:17:16;17.38;;;13.70;;
19867;SDS011;10096;51.112;6.776;2023-02-14T14:19:50;16.58;;;13.65;;
19867;SDS011;10096;51.112;6.776;2023-02-14T14:22:17;19.63;;;14.38;;
19867;SDS011;10096;51.112;6.776;2023-02-14T14:25:09;19.50;;;15.05;;
19867;SDS011;10096;51.112;6.776;2023-02-14T14:27:39;19.38;;;15.00;;
19867;SDS011;10096;51.112;6.776;2023-02-14T14:30:14;22.55;;;15.70;;
19867;SDS011;10096;51.112;6.776;2023-02-14T14:32:44;18.50;;;15.50;;
19867;SDS011;10096;51.112;6.776;2023-02-14T14:35:16;17.63;;;14.10;;
19867;SDS011;10096;51.112;6.776;2023-02-14T14:37:46;19.95;;;16.30;;
19867;SDS011;10096;51.112;6.776;2023-02-14T14:40:21;18.40;;;15.38;;
19867;SDS011;10096;51.112;6.776;2023-02-14T14:42:51;19.52;;;16.33;;
19867;SDS011;10096;51.112;6.776;2023-02-14T14:45:20;17.35;;;15.30;;
19867;SDS011;10096;51.112;6.776;2023-02-14T14:47:50;18.50;;;15.70;;
19867;SDS011;10096;51.112;6.776;2023-02-14T14:50:20;20.33;;;14.93;;
19867;SDS011;10096;51.112;6.776;2023-02-14T14:52:50;19.60;;;15.30;;
19867;SDS011;10096;51.112;6.776;2023-02-14T14:55:23;18.80;;;14.13;;
19867;SDS011;10096;51.112;6.776;2023-02-14T14:57:53;19.67;;;14.50;;
19867;SDS011;10096;51.112;6.776;2023-02-14T15:00:23;19.60;;;14.98;;
19867;SDS011;10096;51.112;6.776;2023-02-14T15:03:00;19.60;;;14.52;;
19867;SDS011;10096;51.112;6.776;2023-02-14T15:05:30;18.15;;;14.07;;
19867;SDS011;10096;51.112;6.776;2023-02-14T15:08:11;21.23;;;14.70;;
19867;SDS011;10096;51.112;6.776;2023-02-14T15:10:41;17.58;;;14.38;;
19867;SDS011;10096;51.112;6.776;2023-02-14T15:13:09;19.67;;;15.27;;
19867;SDS011;10096;51.112;6.776;2023-02-14T15:15:56;22.65;;;15.95;;
19867;SDS011;10096;51.112;6.776;2023-02-14T15:18:23;21.45;;;16.23;;
19867;SDS011;10096;51.112;6.776;2023-02-14T15:20:51;21.77;;;15.27;;
19867;SDS011;10096;51.112;6.776;2023-02-14T15:23:19;19.05;;;14.70;;
19867;SDS011;10096;51.112;6.776;2023-02-14T15:25:49;20.90;;;15.32;;
19867;SDS011;10096;51.112;6.776;2023-02-14T15:28:25;20.40;;;14.52;;
19867;SDS011;10096;51.112;6.776;2023-02-14T15:30:57;20.17;;;14.95;;
19867;SDS011;10096;51.112;6.776;2023-02-14T15:33:26;20.85;;;14.77;;